Time;durP1;ratioP1;P1;durP2;ratioP2;P2;SDS_P1;SDS_P2;PMS_P1;PMS_P2;Temp;Humidity;BMP_temperature;BMP_pressure;BME280_temperature;BME280_humidity;BME280_pressure;Samples;Min_cycle;Max_cycle;Signal;HPM_P1;HPM_P2
2022/08/27 00:00:22;;;;;;;8.77;4.85;;;;;;;19.95;100.00;96036.31;5059786;28;20205;-67
2022/08/27 00:02:50;;;;;;;8.70;4.78;;;;;;;19.98;100.00;96025.13;5059058;28;20224;-66
2022/08/27 00:05:18;;;;;;;10.00;5.35;;;;;;;19.95;100.00;96017.59;5059529;28;20591;-67
2022/08/27 00:07:46;;;;;;;14.68;6.05;;;;;;;19.93;100.00;96027.72;5059544;28;20213;-68
2022/08/27 00:10:16;;;;;;;8.18;4.93;;;;;;;19.95;100.00;96022.16;5059535;28;20205;-66
2022/08/27 00:12:43;;;;;;;10.27;5.03;;;;;;;19.84;100.00;96025.63;5058598;28;20226;-67
2022/08/27 00:15:11;;;;;;;8.77;5.15;;;;;;;19.94;100.00;96025.84;5063479;28;20201;-67
2022/08/27 00:17:39;;;;;;;10.48;5.53;;;;;;;19.87;100.00;96015.28;5059465;28;20670;-67
2022/08/27 00:20:08;;;;;;;8.93;4.85;;;;;;;19.97;100.00;96009.31;5058962;28;20207;-66
2022/08/27 00:22:34;;;;;;;10.63;6.05;;;;;;;19.90;100.00;96014.78;5058143;28;20208;-67
2022/08/27 00:25:01;;;;;;;13.00;5.47;;;;;;;19.82;100.00;96015.19;5058790;28;20723;-68
2022/08/27 00:27:28;;;;;;;10.90;5.43;;;;;;;19.85;100.00;96012.03;5059040;28;20200;-66
2022/08/27 00:29:54;;;;;;;10.55;6.00;;;;;;;19.82;100.00;96020.53;5059293;28;20204;-68
2022/08/27 00:32:21;;;;;;;12.57;5.70;;;;;;;19.78;100.00;96011.38;5058504;28;20205;-68
2022/08/27 00:34:47;;;;;;;11.95;6.18;;;;;;;19.77;100.00;96017.75;5058499;28;20695;-67
2022/08/27 00:37:15;;;;;;;10.25;5.70;;;;;;;19.80;100.00;96014.59;5058881;28;20578;-68
2022/08/27 00:39:41;;;;;;;11.85;5.68;;;;;;;19.70;100.00;96011.75;5059095;28;20205;-68
2022/08/27 00:42:08;;;;;;;10.98;5.70;;;;;;;19.69;100.00;96007.44;5058693;28;20243;-68
2022/08/27 00:44:35;;;;;;;12.85;6.05;;;;;;;19.70;100.00;96009.09;5058191;28;20691;-66
2022/08/27 00:47:06;;;;;;;12.32;6.25;;;;;;;19.80;100.00;96009.25;5058781;28;20295;-66
2022/08/27 00:49:40;;;;;;;10.23;6.07;;;;;;;19.80;100.00;96003.91;5055576;28;20205;-68
2022/08/27 00:52:11;;;;;;;9.35;5.85;;;;;;;19.78;100.00;96000.66;5058712;28;20208;-66
2022/08/27 00:54:40;;;;;;;11.30;6.22;;;;;;;19.72;100.00;95998.94;5058193;28;20224;-67
2022/08/27 00:57:06;;;;;;;11.48;6.28;;;;;;;19.60;100.00;96000.84;5058419;28;20266;-67
2022/08/27 00:59:33;;;;;;;11.95;6.53;;;;;;;19.65;100.00;96005.47;5058262;28;20208;-67
2022/08/27 01:02:19;;;;;;;13.98;6.95;;;;;;;19.57;100.00;96003.97;5058543;28;20204;-68
2022/08/27 01:04:49;;;;;;;11.75;6.18;;;;;;;19.63;100.00;96005.72;5057864;28;20212;-67
2022/08/27 01:07:16;;;;;;;11.75;6.65;;;;;;;19.58;100.00;96005.63;5058307;28;20276;-67
2022/08/27 01:09:47;;;;;;;16.00;6.28;;;;;;;19.69;100.00;96015.47;5058985;28;20204;-68
2022/08/27 01:12:14;;;;;;;12.80;6.70;;;;;;;19.57;100.00;96010.41;5058352;28;20201;-67
2022/08/27 01:14:43;;;;;;;11.00;6.30;;;;;;;19.67;100.00;96019.44;5058281;28;20236;-68
2022/08/27 01:17:11;;;;;;;12.18;6.25;;;;;;;19.69;100.00;96020.81;5058586;28;20236;-67
2022/08/27 01:19:42;;;;;;;12.15;7.03;;;;;;;19.72;100.00;96017.66;5057707;28;20706;-67
2022/08/27 01:22:15;;;;;;;9.82;5.68;;;;;;;19.64;100.00;96019.91;5058379;28;20213;-68
2022/08/27 01:24:45;;;;;;;10.10;6.07;;;;;;;19.50;100.00;96023.91;5057891;28;20665;-66
2022/08/27 01:27:17;;;;;;;11.05;6.20;;;;;;;19.25;100.00;96020.69;5057873;28;20212;-66
2022/08/27 01:29:44;;;;;;;13.60;6.15;;;;;;;19.14;100.00;96024.22;5058022;28;20560;-68
2022/08/27 01:32:15;;;;;;;13.73;6.72;;;;;;;19.26;100.00;96032.22;5057629;28;20232;-67
2022/08/27 01:34:42;;;;;;;13.90;6.72;;;;;;;19.29;100.00;96021.84;5057251;28;21185;-66
2022/08/27 01:37:09;;;;;;;15.57;7.00;;;;;;;19.38;100.00;96033.00;5058139;28;20205;-67
2022/08/27 01:39:38;;;;;;;14.50;7.13;;;;;;;19.33;100.00;96027.53;5057904;28;20216;-67
2022/08/27 01:42:09;;;;;;;11.38;6.38;;;;;;;19.49;100.00;96032.13;5057661;28;20205;-66
2022/08/27 01:44:48;;;;;;;12.57;6.93;;;;;;;19.49;100.00;96029.47;5057043;28;20238;-68
2022/08/27 01:47:15;;;;;;;14.15;6.78;;;;;;;19.44;100.00;96026.72;5056821;28;20235;-66
2022/08/27 01:49:41;;;;;;;15.55;7.07;;;;;;;19.45;100.00;96025.63;5055280;28;20211;-68
2022/08/27 01:52:08;;;;;;;10.85;6.32;;;;;;;19.57;100.00;96021.09;5057441;28;20204;-68
2022/08/27 01:54:34;;;;;;;14.88;6.47;;;;;;;19.49;100.00;96022.28;5057411;28;20224;-68
2022/08/27 01:57:01;;;;;;;12.25;6.35;;;;;;;19.55;100.00;96020.50;5057544;28;20581;-67
2022/08/27 01:59:29;;;;;;;13.40;7.30;;;;;;;19.62;100.00;96009.44;5057608;28;20201;-66
2022/08/27 02:01:56;;;;;;;18.05;8.00;;;;;;;19.58;100.00;96015.50;5057802;28;20211;-66
2022/08/27 02:04:23;;;;;;;14.90;7.47;;;;;;;19.57;100.00;96008.53;5056779;28;20225;-67
2022/08/27 02:06:50;;;;;;;15.50;7.47;;;;;;;19.52;100.00;96010.31;5057360;28;20232;-68
2022/08/27 02:09:16;;;;;;;19.70;8.27;;;;;;;19.53;100.00;96006.59;5057266;28;20204;-67
2022/08/27 02:11:42;;;;;;;16.33;7.78;;;;;;;19.50;100.00;96001.69;5057453;28;20228;-68
2022/08/27 02:14:09;;;;;;;16.13;7.95;;;;;;;19.48;100.00;96004.59;5056621;28;20270;-67
2022/08/27 02:16:37;;;;;;;14.75;7.93;;;;;;;19.45;100.00;96004.25;5057717;28;20564;-68
2022/08/27 02:19:04;;;;;;;14.15;7.57;;;;;;;19.45;100.00;96004.25;5057075;28;20986;-67
2022/08/27 02:21:30;;;;;;;16.85;8.30;;;;;;;19.44;100.00;96008.00;5057235;28;20207;-68
2022/08/27 02:23:57;;;;;;;13.32;7.53;;;;;;;19.41;100.00;95997.78;5056499;28;20229;-67
2022/08/27 02:26:23;;;;;;;18.48;8.02;;;;;;;19.34;100.00;96007.78;5056654;28;20225;-66
2022/08/27 02:28:50;;;;;;;19.38;8.27;;;;;;;19.29;100.00;96005.00;5056658;28;20204;-66
2022/08/27 02:31:17;;;;;;;16.23;8.18;;;;;;;19.32;100.00;96010.72;5057103;28;20212;-66
2022/08/27 02:33:44;;;;;;;13.85;7.38;;;;;;;19.40;100.00;96004.16;5056216;28;20848;-66
2022/08/27 02:36:12;;;;;;;15.18;7.38;;;;;;;19.26;100.00;95994.81;5056987;28;20207;-66
2022/08/27 02:38:39;;;;;;;17.80;8.20;;;;;;;19.24;100.00;95999.56;5056876;28;20205;-67
2022/08/27 02:41:06;;;;;;;18.98;8.38;;;;;;;19.27;100.00;96007.09;5053102;28;20200;-66
2022/08/27 02:43:33;;;;;;;18.83;8.25;;;;;;;19.21;100.00;96000.03;5056071;28;20597;-67
2022/08/27 02:46:00;;;;;;;15.82;6.80;;;;;;;19.17;100.00;95998.88;5056903;28;20225;-66
2022/08/27 02:48:27;;;;;;;18.42;8.07;;;;;;;19.15;100.00;96003.66;5053063;28;20220;-67
2022/08/27 02:50:55;;;;;;;13.95;7.85;;;;;;;19.17;100.00;95997.03;5057109;28;20864;-68
2022/08/27 02:53:22;;;;;;;14.77;7.90;;;;;;;19.09;100.00;95996.56;5055913;28;20243;-67
2022/08/27 02:55:51;;;;;;;14.30;7.35;;;;;;;19.03;100.00;95997.50;5057206;28;20637;-67
2022/08/27 02:58:17;;;;;;;16.02;8.30;;;;;;;19.04;100.00;95991.06;5060291;28;20208;-67
2022/08/27 03:00:44;;;;;;;16.95;8.40;;;;;;;18.90;100.00;95986.22;5063114;28;20208;-67
2022/08/27 03:03:10;;;;;;;16.80;7.25;;;;;;;18.93;100.00;95974.03;5062978;28;20320;-67
2022/08/27 03:05:37;;;;;;;12.65;7.03;;;;;;;18.88;100.00;95981.13;5063295;28;20228;-67
2022/08/27 03:08:06;;;;;;;20.10;8.60;;;;;;;18.99;100.00;95974.94;5063219;28;20298;-68
2022/08/27 03:10:33;;;;;;;15.38;6.95;;;;;;;18.88;100.00;95975.00;5063013;28;20219;-67
2022/08/27 03:12:59;;;;;;;15.18;7.60;;;;;;;18.87;100.00;95976.03;5062876;28;20228;-67
2022/08/27 03:15:26;;;;;;;16.08;7.90;;;;;;;18.85;100.00;95978.94;5063327;28;20212;-68
2022/08/27 03:20:39;;;;;;;19.33;8.15;;;;;;;18.89;100.00;95966.75;5062901;28;20211;-68
2022/08/27 03:23:08;;;;;;;15.23;7.90;;;;;;;18.85;100.00;95965.59;5062317;28;20259;-67
2022/08/27 03:25:35;;;;;;;14.40;7.25;;;;;;;18.82;100.00;95962.56;5062821;28;20204;-67
2022/08/27 03:28:02;;;;;;;14.05;7.38;;;;;;;18.75;100.00;95965.34;5062938;28;20204;-66
2022/08/27 03:30:28;;;;;;;16.33;6.97;;;;;;;18.76;100.00;95966.16;5063283;28;20200;-68
2022/08/27 03:32:55;;;;;;;14.00;7.55;;;;;;;18.75;100.00;95964.53;5062836;28;20223;-68
2022/08/27 03:35:21;;;;;;;12.95;7.13;;;;;;;18.76;100.00;95961.66;5063053;28;20208;-67
2022/08/27 03:37:49;;;;;;;13.30;6.55;;;;;;;18.77;100.00;95967.78;5063369;28;20212;-68
2022/08/27 03:40:18;;;;;;;14.52;7.32;;;;;;;18.84;100.00;95966.63;5063030;28;20218;-68
2022/08/27 03:42:44;;;;;;;16.00;7.45;;;;;;;18.72;100.00;95965.81;5062184;28;20602;-66
2022/08/27 03:45:12;;;;;;;14.18;7.53;;;;;;;18.77;100.00;95965.13;5063202;28;20211;-67
2022/08/27 03:47:39;;;;;;;12.63;6.85;;;;;;;18.76;100.00;95967.00;5062809;28;20231;-68
2022/08/27 03:50:07;;;;;;;12.43;7.47;;;;;;;18.81;100.00;95969.75;5060260;28;20205;-67
2022/08/27 03:52:35;;;;;;;14.23;7.13;;;;;;;18.82;100.00;95966.03;5061529;28;20684;-68
2022/08/27 03:55:02;;;;;;;15.32;7.97;;;;;;;18.80;100.00;95968.16;5063056;28;20293;-67
2022/08/27 03:57:30;;;;;;;16.33;8.25;;;;;;;18.87;100.00;95965.34;5063285;28;20228;-67
2022/08/27 03:59:57;;;;;;;14.73;8.20;;;;;;;18.80;100.00;95964.66;5063345;28;20212;-67
2022/08/27 04:02:23;;;;;;;15.95;7.82;;;;;;;18.83;100.00;95956.19;5062497;28;20208;-66
2022/08/27 04:04:50;;;;;;;14.90;7.57;;;;;;;18.85;100.00;95957.56;5063409;28;20204;-67
2022/08/27 04:07:16;;;;;;;15.48;7.78;;;;;;;18.83;100.00;95956.97;5062523;28;20733;-66
2022/08/27 04:09:43;;;;;;;14.70;7.68;;;;;;;18.87;100.00;95954.66;5060363;28;20208;-67
2022/08/27 04:12:10;;;;;;;20.52;8.23;;;;;;;18.84;100.00;95955.94;5059685;28;20231;-68
2022/08/27 04:14:38;;;;;;;15.50;7.68;;;;;;;18.89;100.00;95960.56;5058933;28;20236;-68
2022/08/27 04:17:05;;;;;;;14.57;7.88;;;;;;;18.85;100.00;95960.25;5059401;28;20204;-68
2022/08/27 04:19:32;;;;;;;19.73;8.95;;;;;;;18.88;100.00;95962.44;5059225;28;20254;-68
2022/08/27 04:22:01;;;;;;;22.08;8.70;;;;;;;18.93;100.00;95963.34;5059277;28;20204;-68
2022/08/27 04:24:28;;;;;;;15.85;8.75;;;;;;;18.91;100.00;95963.81;5057883;28;21183;-68
2022/08/27 04:26:55;;;;;;;15.93;8.20;;;;;;;18.94;100.00;95966.84;5059201;28;21161;-68
2022/08/27 04:29:21;;;;;;;15.05;8.55;;;;;;;18.90;100.00;95956.84;5059228;28;20680;-68
2022/08/27 04:31:50;;;;;;;13.13;7.70;;;;;;;19.00;100.00;95964.06;5059374;28;20204;-68
2022/08/27 04:34:16;;;;;;;16.20;8.38;;;;;;;18.88;100.00;95959.78;5058376;28;20277;-68
2022/08/27 04:36:43;;;;;;;15.50;8.27;;;;;;;18.93;100.00;95963.34;5058873;28;20205;-68
2022/08/27 04:39:09;;;;;;;16.50;8.20;;;;;;;18.96;100.00;95956.72;5059596;28;20208;-68
2022/08/27 04:41:36;;;;;;;16.88;8.73;;;;;;;18.97;100.00;95963.69;5058919;28;20215;-68
2022/08/27 04:44:04;;;;;;;14.88;7.82;;;;;;;19.04;100.00;95956.34;5058524;28;20225;-68
2022/08/27 04:46:34;;;;;;;19.98;9.10;;;;;;;19.07;100.00;95970.09;5059020;28;20220;-68
2022/08/27 04:49:04;;;;;;;18.50;9.13;;;;;;;19.14;100.00;95959.28;5055460;28;20200;-67
2022/08/27 04:51:31;;;;;;;18.27;8.88;;;;;;;19.07;100.00;95970.09;5058980;28;20196;-68
2022/08/27 04:53:58;;;;;;;17.85;8.55;;;;;;;19.12;100.00;95970.19;5058396;28;20232;-68
2022/08/27 04:56:25;;;;;;;18.40;8.45;;;;;;;19.17;100.00;95966.81;5058582;28;20201;-68
2022/08/27 04:58:51;;;;;;;14.30;8.32;;;;;;;19.17;100.00;95969.47;5058876;28;20204;-68
2022/08/27 05:01:21;;;;;;;20.48;8.13;;;;;;;19.18;100.00;95971.94;5058844;28;20204;-68
2022/08/27 05:03:48;;;;;;;15.43;8.10;;;;;;;19.15;100.00;95975.06;5057728;28;20217;-68
2022/08/27 05:06:16;;;;;;;16.55;8.23;;;;;;;19.24;100.00;95976.31;5058835;28;20247;-67
2022/08/27 05:08:43;;;;;;;17.27;9.32;;;;;;;19.23;100.00;95979.22;5058755;28;20204;-68
2022/08/27 05:11:13;;;;;;;16.25;8.68;;;;;;;19.32;100.00;95977.81;5058514;28;20231;-68
2022/08/27 05:13:41;;;;;;;17.67;8.95;;;;;;;19.36;100.00;95969.09;5057884;28;21292;-68
2022/08/27 05:16:09;;;;;;;19.40;9.98;;;;;;;19.45;100.00;95978.38;5058264;28;20706;-67
2022/08/27 05:18:37;;;;;;;17.23;8.88;;;;;;;19.38;100.00;95977.69;5058390;28;20196;-68
2022/08/27 05:21:05;;;;;;;17.48;9.15;;;;;;;19.47;100.00;95975.44;5057796;28;20208;-68
2022/08/27 05:23:34;;;;;;;16.90;9.43;;;;;;;19.50;100.00;95981.13;5057445;28;20224;-68
2022/08/27 05:26:01;;;;;;;16.77;9.43;;;;;;;19.44;100.00;95981.28;5057973;28;20211;-68
2022/08/27 05:28:28;;;;;;;18.52;9.20;;;;;;;19.53;100.00;95977.19;5058287;28;20201;-68
2022/08/27 05:31:03;;;;;;;15.07;9.25;;;;;;;19.52;100.00;95973.69;5058626;28;20200;-68
2022/08/27 05:33:30;;;;;;;19.50;9.52;;;;;;;19.43;100.00;95975.09;5057196;28;20215;-68
2022/08/27 05:35:58;;;;;;;17.08;9.00;;;;;;;19.60;100.00;95978.63;5058119;28;21082;-68
2022/08/27 05:38:26;;;;;;;19.30;9.25;;;;;;;19.59;100.00;95980.50;5057785;28;20227;-68
2022/08/27 05:41:04;;;;;;;18.52;9.98;;;;;;;19.75;100.00;95971.72;5057824;28;20289;-68
2022/08/27 05:43:31;;;;;;;23.13;9.57;;;;;;;19.66;100.00;95970.47;5057187;28;20638;-68
2022/08/27 05:45:58;;;;;;;17.65;9.15;;;;;;;19.81;100.00;95978.00;5057942;28;21146;-68
2022/08/27 05:48:24;;;;;;;21.63;10.32;;;;;;;19.82;100.00;95979.63;5054158;28;20224;-68
2022/08/27 05:50:50;;;;;;;19.05;9.98;;;;;;;19.86;100.00;95980.75;5057626;28;20230;-68
2022/08/27 05:53:17;;;;;;;16.60;8.80;;;;;;;19.94;100.00;95986.53;5057184;28;20236;-68
2022/08/27 05:55:45;;;;;;;18.98;9.50;;;;;;;20.02;100.00;95975.47;5057332;28;20204;-68
2022/08/27 06:03:39;;;;;;;21.13;11.10;;;;;;;20.18;100.00;95985.38;5056149;28;20424;-68
2022/08/27 06:06:08;;;;;;;22.55;10.65;;;;;;;20.17;100.00;95988.28;5056834;28;20197;-68
2022/08/27 06:08:35;;;;;;;23.15;10.13;;;;;;;20.15;100.00;95993.88;5056737;28;20224;-68
2022/08/27 06:11:03;;;;;;;27.90;11.55;;;;;;;20.21;100.00;95996.41;5057830;28;20212;-70
2022/08/27 06:13:32;;;;;;;23.17;11.35;;;;;;;20.42;100.00;95993.00;5056477;28;20217;-70
2022/08/27 06:16:01;;;;;;;23.75;10.55;;;;;;;20.49;100.00;95992.84;5057113;28;20200;-70
2022/08/27 06:18:28;;;;;;;23.30;10.88;;;;;;;20.49;100.00;95993.66;5057031;28;20681;-69
2022/08/27 06:20:54;;;;;;;18.63;9.85;;;;;;;20.54;100.00;95992.91;5057228;28;20200;-69
2022/08/27 06:23:20;;;;;;;25.30;11.65;;;;;;;20.25;100.00;95992.19;5056774;28;20260;-69
2022/08/27 06:25:47;;;;;;;24.42;11.45;;;;;;;20.42;100.00;95992.19;5057166;28;20217;-70
2022/08/27 06:28:13;;;;;;;27.58;12.05;;;;;;;20.36;100.00;95993.97;5056763;28;20231;-70
2022/08/27 06:30:41;;;;;;;27.15;13.10;;;;;;;20.42;100.00;95989.53;5057230;28;20205;-70
2022/08/27 06:33:08;;;;;;;29.38;13.25;;;;;;;20.27;100.00;95998.09;5055493;28;20256;-70
2022/08/27 06:35:34;;;;;;;25.52;12.80;;;;;;;20.39;100.00;95998.03;5056995;28;20205;-70
2022/08/27 06:38:01;;;;;;;32.58;13.85;;;;;;;20.31;100.00;95995.75;5057010;28;20224;-69
2022/08/27 06:40:27;;;;;;;26.10;12.57;;;;;;;20.50;100.00;95989.13;5057105;28;20208;-69
2022/08/27 06:42:54;;;;;;;28.42;12.88;;;;;;;20.59;100.00;95998.34;5056190;28;20224;-70
2022/08/27 06:45:20;;;;;;;30.13;13.43;;;;;;;20.58;100.00;95992.19;5056877;28;20208;-69
2022/08/27 06:47:48;;;;;;;30.15;13.90;;;;;;;20.64;100.00;96007.28;5056360;28;20315;-70
2022/08/27 06:50:15;;;;;;;35.13;14.13;;;;;;;20.58;100.00;95999.41;5054099;28;20208;-70
2022/08/27 06:52:41;;;;;;;40.55;15.77;;;;;;;20.54;100.00;96003.63;5056005;28;20297;-69
2022/08/27 06:55:10;;;;;;;35.17;15.82;;;;;;;20.51;100.00;96012.16;5057194;28;20208;-69
2022/08/27 06:57:36;;;;;;;43.78;17.75;;;;;;;20.45;100.00;96003.22;5055544;28;20738;-69
2022/08/27 07:00:04;;;;;;;46.28;18.75;;;;;;;20.51;100.00;96002.25;5054609;28;20230;-69
2022/08/27 07:02:31;;;;;;;52.17;19.42;;;;;;;20.58;100.00;96004.75;5053889;28;20754;-70
2022/08/27 07:04:59;;;;;;;51.88;19.27;;;;;;;20.64;100.00;96009.94;5055229;28;20242;-69
2022/08/27 07:07:26;;;;;;;47.58;19.55;;;;;;;20.50;100.00;96010.53;5054853;28;20332;-69
2022/08/27 07:09:52;;;;;;;52.63;20.08;;;;;;;20.49;100.00;96009.72;5054894;28;20212;-69
2022/08/27 07:12:20;;;;;;;50.35;20.25;;;;;;;20.38;100.00;96015.97;5055083;28;20200;-69
2022/08/27 07:14:46;;;;;;;51.20;19.77;;;;;;;20.42;100.00;96018.97;5056997;28;20204;-70
2022/08/27 07:17:13;;;;;;;52.80;20.15;;;;;;;20.32;100.00;96021.47;5055884;28;20204;-69
2022/08/27 07:19:39;;;;;;;49.00;19.35;;;;;;;20.40;100.00;96021.06;5055935;28;20232;-69
2022/08/27 07:22:07;;;;;;;52.00;20.30;;;;;;;20.40;100.00;96021.06;5055524;28;21156;-69
2022/08/27 07:24:34;;;;;;;54.28;20.95;;;;;;;20.37;100.00;96021.56;5056103;28;20229;-69
2022/08/27 07:27:01;;;;;;;53.65;20.38;;;;;;;20.37;100.00;96017.00;5056034;28;20249;-69
2022/08/27 07:29:27;;;;;;;53.88;20.75;;;;;;;20.49;100.00;96019.59;5056487;28;20212;-69
2022/08/27 07:31:54;;;;;;;56.58;20.75;;;;;;;20.65;100.00;96022.28;5055860;28;20211;-69
2022/08/27 07:34:20;;;;;;;52.10;19.92;;;;;;;20.70;100.00;96021.56;5055334;28;20225;-70
2022/08/27 07:36:47;;;;;;;54.05;21.42;;;;;;;20.74;100.00;96022.72;5056567;28;20211;-70
2022/08/27 07:39:15;;;;;;;52.40;20.40;;;;;;;20.92;100.00;96024.06;5056168;28;20204;-67
2022/08/27 07:44:26;;;;;;;52.35;20.48;;;;;;;20.80;100.00;96027.91;5054187;28;20228;-68
2022/08/27 07:46:53;;;;;;;56.13;20.85;;;;;;;20.80;100.00;96024.41;5059933;28;20265;-69
2022/08/27 07:49:21;;;;;;;48.33;19.38;;;;;;;20.73;100.00;96037.16;5055595;28;20237;-68
2022/08/27 07:51:48;;;;;;;57.75;20.85;;;;;;;20.63;100.00;96031.63;5059785;28;20277;-68
2022/08/27 07:54:16;;;;;;;49.13;19.58;;;;;;;20.68;100.00;96047.78;5059151;28;20228;-68
2022/08/27 07:56:43;;;;;;;51.22;20.55;;;;;;;20.65;100.00;96045.59;5059787;28;20204;-68
2022/08/27 07:59:11;;;;;;;54.20;20.48;;;;;;;20.69;100.00;96047.53;5059431;28;20820;-68
2022/08/27 08:01:37;;;;;;;49.40;19.23;;;;;;;20.59;100.00;96051.91;5059523;28;20205;-69
2022/08/27 08:04:04;;;;;;;60.28;21.05;;;;;;;20.53;100.00;96048.34;5059417;28;20227;-69
2022/08/27 08:06:31;;;;;;;57.15;21.00;;;;;;;20.62;100.00;96051.41;5059238;28;20231;-68
2022/08/27 08:08:58;;;;;;;51.92;20.30;;;;;;;20.75;100.00;96051.13;5059379;28;20251;-69
2022/08/27 08:11:26;;;;;;;55.72;19.83;;;;;;;20.75;100.00;96053.78;5059317;28;20208;-68
2022/08/27 08:13:53;;;;;;;54.42;20.00;;;;;;;20.49;100.00;96062.44;5059184;28;20224;-68
2022/08/27 08:16:19;;;;;;;47.80;19.83;;;;;;;20.61;100.00;96065.84;5059316;28;20215;-68
2022/08/27 08:18:46;;;;;;;50.38;19.67;;;;;;;20.72;100.00;96063.13;5059535;28;20286;-69
2022/08/27 08:21:14;;;;;;;52.85;19.63;;;;;;;20.73;100.00;96062.06;5059400;28;20205;-68
2022/08/27 08:23:42;;;;;;;54.13;20.95;;;;;;;20.78;100.00;96062.16;5058740;28;20224;-68
2022/08/27 08:26:09;;;;;;;55.88;21.20;;;;;;;20.84;100.00;96069.22;5059256;28;20209;-69
2022/08/27 08:28:38;;;;;;;59.15;20.75;;;;;;;20.83;100.00;96065.72;5058575;28;20220;-68
2022/08/27 08:31:05;;;;;;;54.85;19.52;;;;;;;20.84;100.00;96070.03;5058804;28;20581;-69
2022/08/27 08:33:32;;;;;;;52.25;20.40;;;;;;;20.99;100.00;96064.91;5058829;28;20349;-69
2022/08/27 08:36:06;;;;;;;57.85;20.38;;;;;;;21.03;100.00;96065.25;5059161;28;20211;-69
2022/08/27 08:38:32;;;;;;;55.25;20.15;;;;;;;20.99;100.00;96070.28;5059231;28;20212;-67
2022/08/27 08:40:59;;;;;;;56.40;19.05;;;;;;;20.98;100.00;96079.34;5059128;28;20213;-68
2022/08/27 08:43:31;;;;;;;52.70;20.38;;;;;;;21.07;100.00;96074.41;5058630;28;20613;-69
2022/08/27 08:46:07;;;;;;;57.22;20.52;;;;;;;20.93;100.00;96071.25;5059293;28;20206;-68
2022/08/27 08:48:35;;;;;;;52.42;19.75;;;;;;;20.99;100.00;96070.28;5056663;28;20228;-69
2022/08/27 08:51:07;;;;;;;53.58;19.88;;;;;;;21.03;100.00;96071.41;5058887;28;20200;-69
2022/08/27 08:53:41;;;;;;;53.30;19.95;;;;;;;21.05;100.00;96074.66;5058137;28;20247;-69
2022/08/27 08:56:10;;;;;;;51.53;19.63;;;;;;;21.06;100.00;96073.59;5058074;28;20257;-68
2022/08/27 08:58:44;;;;;;;44.08;18.80;;;;;;;21.15;100.00;96064.06;5059016;28;20201;-69
2022/08/27 09:01:14;;;;;;;51.17;19.80;;;;;;;21.11;100.00;96060.25;5058586;28;20653;-69
2022/08/27 09:03:44;;;;;;;54.03;19.48;;;;;;;21.23;100.00;96061.00;5058068;28;20231;-68
2022/08/27 09:06:20;;;;;;;46.65;19.88;;;;;;;21.31;100.00;96063.25;5058968;28;20220;-69
2022/08/27 09:08:47;;;;;;;42.88;17.73;;;;;;;21.41;100.00;96066.06;5057914;28;20224;-70
2022/08/27 09:11:20;;;;;;;45.67;19.13;;;;;;;21.61;100.00;96064.50;5058677;28;20200;-69
2022/08/27 09:13:49;;;;;;;45.80;19.10;;;;;;;21.79;100.00;96058.00;5057871;28;20235;-70
2022/08/27 09:16:17;;;;;;;43.78;18.45;;;;;;;22.04;100.00;96059.88;5058454;28;20207;-70
2022/08/27 09:18:44;;;;;;;45.38;18.10;;;;;;;22.12;100.00;96064.84;5058414;28;20572;-69
2022/08/27 09:21:20;;;;;;;45.00;17.92;;;;;;;22.40;100.00;96066.47;5058536;28;20235;-69
2022/08/27 09:23:57;;;;;;;46.75;18.63;;;;;;;22.52;100.00;96065.25;5057342;28;20228;-70
2022/08/27 09:26:26;;;;;;;46.25;17.38;;;;;;;22.53;100.00;96064.22;5058297;28;20204;-70
2022/08/27 09:29:17;;;;;;;43.88;17.20;;;;;;;22.76;99.54;96059.28;5057543;28;20246;-70
2022/08/27 09:31:48;;;;;;;42.78;17.50;;;;;;;22.91;98.54;96063.97;5056699;28;20243;-69
2022/08/27 09:34:15;;;;;;;44.03;18.80;;;;;;;22.67;97.24;96062.72;5056992;28;20220;-70
2022/08/27 09:36:59;;;;;;;39.65;17.13;;;;;;;23.16;94.70;96058.84;5057418;28;20224;-69
2022/08/27 09:39:32;;;;;;;37.28;15.82;;;;;;;23.28;93.86;96059.44;5058118;28;20200;-69
2022/08/27 09:41:59;;;;;;;41.25;17.00;;;;;;;22.87;95.42;96057.50;5057735;28;20739;-70
2022/08/27 09:44:25;;;;;;;44.05;17.55;;;;;;;22.87;95.01;96060.19;5057277;28;20227;-69
2022/08/27 09:46:57;;;;;;;42.85;17.50;;;;;;;23.04;95.24;96058.19;5057509;28;20282;-70
2022/08/27 09:49:24;;;;;;;42.75;18.13;;;;;;;22.97;95.88;96054.88;5055459;28;20235;-69
2022/08/27 09:51:51;;;;;;;45.58;17.38;;;;;;;23.05;94.44;96059.81;5057767;28;20211;-69
2022/08/27 09:54:30;;;;;;;44.75;17.33;;;;;;;22.88;96.12;96051.84;5056650;28;20668;-70
2022/08/27 09:56:57;;;;;;;45.00;17.23;;;;;;;23.03;97.06;96056.59;5057579;28;20258;-69
2022/08/27 09:59:27;;;;;;;41.53;17.60;;;;;;;22.90;95.56;96054.31;5057084;28;20205;-69
2022/08/27 10:01:59;;;;;;;40.33;16.85;;;;;;;22.94;96.80;96050.03;5058072;28;20212;-69
2022/08/27 10:04:33;;;;;;;40.95;17.38;;;;;;;22.72;99.42;96052.81;5056875;28;20468;-69
2022/08/27 10:06:59;;;;;;;48.28;16.80;;;;;;;23.08;96.76;96052.06;5056654;28;20751;-69
2022/08/27 10:09:32;;;;;;;37.85;16.25;;;;;;;23.48;94.59;96053.09;5056980;28;20855;-70
2022/08/27 10:12:03;;;;;;;41.78;17.30;;;;;;;23.78;93.78;96052.47;5057248;28;20208;-69
2022/08/27 10:14:34;;;;;;;36.28;15.07;;;;;;;24.06;92.06;96042.09;5057012;28;20223;-70
2022/08/27 10:17:16;;;;;;;35.83;15.50;;;;;;;24.11;89.11;96042.91;5057873;28;20208;-70
2022/08/27 10:19:53;;;;;;;34.15;16.25;;;;;;;23.74;90.22;96041.44;5057388;28;20204;-70
2022/08/27 10:22:33;;;;;;;38.22;15.93;;;;;;;23.42;93.90;96035.31;5056593;28;20200;-70
2022/08/27 10:25:11;;;;;;;36.42;15.43;;;;;;;23.83;90.47;96045.22;5057503;28;20208;-70
2022/08/27 10:27:46;;;;;;;38.70;15.88;;;;;;;23.47;90.58;96045.28;5057070;28;20215;-70
2022/08/27 10:30:16;;;;;;;39.63;15.80;;;;;;;23.16;90.90;96037.31;5057165;28;20209;-69
2022/08/27 10:33:09;;;;;;;32.05;15.02;;;;;;;23.07;91.49;96044.25;5056364;28;20221;-69
2022/08/27 10:35:42;;;;;;;33.30;14.95;;;;;;;22.79;95.14;96044.53;5056270;28;20204;-70
2022/08/27 10:38:16;;;;;;;33.15;15.10;;;;;;;22.73;94.08;96050.94;5056732;28;20331;-70
2022/08/27 10:40:51;;;;;;;32.47;14.23;;;;;;;22.81;93.43;96047.75;5057163;28;20213;-69
2022/08/27 10:44:04;;;;;;;30.30;13.68;;;;;;;22.96;93.20;96059.47;5055905;28;20228;-69
2022/08/27 10:46:47;;;;;;;35.58;15.85;;;;;;;23.03;95.47;96051.22;5056740;28;21028;-70
2022/08/27 10:49:23;;;;;;;39.25;15.68;;;;;;;23.04;96.65;96045.56;5054516;28;20247;-69
2022/08/27 10:52:00;;;;;;;36.55;15.98;;;;;;;22.95;97.95;96049.78;5057013;28;20204;-70
2022/08/27 10:54:32;;;;;;;36.72;16.95;;;;;;;22.90;100.00;96051.63;5055854;28;20240;-70
2022/08/27 10:57:04;;;;;;;38.03;16.52;;;;;;;22.94;99.10;96053.53;5056606;28;20211;-69
2022/08/27 10:59:42;;;;;;;36.72;15.32;;;;;;;22.88;96.85;96056.44;5056874;28;20203;-69
2022/08/27 11:02:21;;;;;;;33.35;14.82;;;;;;;22.99;100.00;96048.22;5056582;28;20200;-69
2022/08/27 11:04:53;;;;;;;32.78;15.10;;;;;;;23.14;98.42;96045.66;5056489;28;20691;-69
2022/08/27 11:07:24;;;;;;;32.92;16.27;;;;;;;23.14;96.99;96050.19;5057023;28;20216;-69
2022/08/27 11:09:54;;;;;;;36.08;16.25;;;;;;;23.33;94.32;96042.28;5056759;28;20228;-69
2022/08/27 11:12:27;;;;;;;40.45;16.95;;;;;;;23.59;100.00;96054.78;5055723;28;20231;-70
2022/08/27 11:14:57;;;;;;;34.65;16.63;;;;;;;23.53;97.63;96038.88;5056891;28;20205;-70
2022/08/27 11:17:32;;;;;;;33.92;16.23;;;;;;;23.49;95.39;96052.03;5056730;28;20204;-69
2022/08/27 11:20:06;;;;;;;33.28;15.82;;;;;;;23.43;92.99;96052.25;5060062;28;20200;-69
2022/08/27 11:22:37;;;;;;;31.20;15.30;;;;;;;23.30;99.01;96053.53;5059663;28;20212;-70
2022/08/27 11:25:13;;;;;;;8.30;3.65;;;;;;;22.61;82.28;96063.72;5057630;28;21068;-70
2022/08/27 11:27:41;;;;;;;4.97;2.83;;;;;;;22.29;82.23;96062.88;5058911;28;20215;-69
2022/08/27 11:30:16;;;;;;;7.65;3.80;;;;;;;22.15;86.43;96061.63;5059440;28;20302;-70
2022/08/27 11:32:57;;;;;;;4.57;3.08;;;;;;;22.04;85.62;96059.88;5058828;28;20223;-69